Aérodrome :
LOGIN :

S'inscrire | Disclaimer

   EN    FR    IT 

 










Légende :    VFR   VFR Marginal   IFR   IFR Intensif   IFR Très Intensif
Visi : 
Plafond : 
>= 8 km
>= 3000ft
5 à 8 km
1000 à 3000 ft
1500m à 5 km
500 à 1000 ft
800 à 1500m
200 à 500 ft
< 800m
< 200 ft
Symboles :   Orages  Brouillard  Fortes neiges  Fortes précipitations  Vent > 20 kt
SIGMETs :   Divers  Orages  Givrage  Turbulence  Onde Orograph.  Cendres Volcan.






- Altitude de l'aérodrome : 2425 ft


ETHA - Altenstadt Army

DERNIER METAR :
  • 070520Z 29002KT 8000 MIFG SCT040 M03/M04 Q1020 BLACKBLU+BLU+ BECMG RED

METARs EXPIRÉS :
  • 070420Z 26001KT 9999 BKN040 M02/M03 Q1020 BLACKBLU
  • 070320Z AUTO 25003KT 9999 // ////// M02/M03 Q1020 ///
  • 070220Z AUTO 25002KT 9999 // ////// M02/M03 Q1019 ///
  • 070120Z AUTO 28004KT 9999 // ////// M01/M03 Q1019 ///

TAF TAF ETHA
Valide du 07 à 06h jusqu'au 07 à 15h UTC


070520Z 0706/0715 31003KT 9999 NSW SCT040
BECMG 0706/0708 VRB03KT 0500 FZFG FEW040
BECMG 0709/0711 08005KT 9999 NSW SCT220



MET'MAP, la Météo Aéronautique d'un coup d'oeil ! - Copyright ORBIFLY Décembre 2007 - Disclaimer

ORBIFLY MET'MAP TEAM :

Programmation & Développement : Alexandra Zaïnal
Sur une idée originale de : Baudouin d'Aumeries
Soutien technique & logistique : Manuel Goepfert
Assistance : Marc-Olivier Méhu




SOURCES & CREDITS :

   NOAA